Terminal Aerodrome Forecast
Issued by NWS

Home | Current Version | Previous Version | Graphics & Text | Print | Product List | Glossary On
Versions: 1 2 3 4 5 6 7 8 9 10 11 12 13 14 15 16 17 18
618
FTUS43 KGRB 011724
TAFATW
TAF
KATW 011724Z 0118/0218 05011G19KT P6SM VCSH BKN022
      TEMPO 0118/0122 4SM -SHRA BKN012
     FM012200 05009KT P6SM VCSH BKN016
      TEMPO 0122/0201 5SM -SHRA BR BKN007
     FM020100 03006KT P6SM VCSH OVC006
      TEMPO 0204/0208 4SM -SHRA BR BKN003
     FM020800 02005KT 4SM BR OVC003
     FM021500 34008KT P6SM BKN012=

USA.gov is the U.S. government's official web portal to all federal, state and local government web resources and services.